Pointblank, Texas
Current Conditions -  °F | °C
As of 5:53 AM on Friday 31 Oct 2014 (Local Time) from KUTS Reporting Station
Clear Clear  
Wind Chill: 13°   Ceiling: Unl
Heat Index: 13°   Visibility: 10mi
Dew Point:   Wind: 5mph
Humidity: 75%   Direction: 340°NNW
Pressure: 30.14"   Gusts: NA
Location:  30.74°N, 95.21°W
Report Text: KUTS 311053Z AUTO 34004KT 10SM CLR 13/09 A3014 RMK AO2 SLP202 T01330089
Loading
Personal Weather Stations






























Interactive Weather Map
Tropical Storm Tracking
New forecast layout! Learn more

10-Day Weather Forecast

Advertisements
Track Severe Weather on mobile